createdAt,value
2023-04-02T00:00:33.017Z,0
2023-04-02T00:01:32.982Z,0
2023-04-02T00:02:33.149Z,0
2023-04-02T00:03:32.985Z,0
2023-04-02T00:04:32.965Z,0
2023-04-02T00:05:33.281Z,0
2023-04-02T00:06:33.396Z,0
2023-04-02T00:07:32.912Z,0
2023-04-02T00:08:32.966Z,0
2023-04-02T00:09:32.991Z,0
2023-04-02T00:10:32.993Z,0
2023-04-02T00:11:32.960Z,0
2023-04-02T00:12:32.986Z,0
2023-04-02T00:13:32.952Z,0
2023-04-02T00:14:33.031Z,0
2023-04-02T00:15:33.202Z,0
2023-04-02T00:16:33.075Z,0
2023-04-02T00:17:32.967Z,0
2023-04-02T00:18:33.043Z,0
2023-04-02T00:19:32.870Z,0
2023-04-02T00:20:32.985Z,0
2023-04-02T00:21:32.971Z,0
2023-04-02T00:22:32.954Z,0
2023-04-02T00:23:32.902Z,0
2023-04-02T00:24:32.967Z,0
2023-04-02T00:25:33.360Z,0
2023-04-02T00:26:33.017Z,0
2023-04-02T00:27:32.888Z,0
2023-04-02T00:28:32.950Z,0
2023-04-02T00:29:32.998Z,0
2023-04-02T00:30:32.980Z,0
2023-04-02T00:31:32.891Z,0
2023-04-02T00:32:33.066Z,0
2023-04-02T00:33:32.949Z,0
2023-04-02T00:34:32.976Z,0
2023-04-02T00:35:33.164Z,0
2023-04-02T00:36:32.980Z,0
2023-04-02T00:37:32.941Z,0
2023-04-02T00:38:32.975Z,0
2023-04-02T00:39:32.911Z,0
2023-04-02T00:40:32.994Z,0
2023-04-02T00:41:32.960Z,0
2023-04-02T00:42:32.961Z,0
2023-04-02T00:43:32.992Z,0
2023-04-02T00:44:32.991Z,0
2023-04-02T00:45:33.317Z,0
2023-04-02T00:46:32.963Z,0
2023-04-02T00:47:32.897Z,0
2023-04-02T00:48:32.985Z,0
2023-04-02T00:49:33.034Z,0
2023-04-02T00:50:32.954Z,0
2023-04-02T00:51:32.880Z,0
2023-04-02T00:52:33.002Z,0
2023-04-02T00:53:32.954Z,0
2023-04-02T00:54:32.958Z,0
2023-04-02T00:55:33.157Z,0
2023-04-02T00:56:33.043Z,0
2023-04-02T00:57:32.987Z,0
2023-04-02T00:58:32.951Z,0
2023-04-02T00:59:32.961Z,0
2023-04-02T01:00:32.993Z,0
2023-04-02T01:01:33.085Z,0
2023-04-02T01:02:33.042Z,0
2023-04-02T01:03:33.124Z,0
2023-04-02T01:04:32.974Z,0
2023-04-02T01:05:33.191Z,0
2023-04-02T01:06:32.981Z,0
2023-04-02T01:07:32.896Z,0
2023-04-02T01:08:32.969Z,0
2023-04-02T01:09:32.976Z,0
2023-04-02T01:10:32.974Z,0
2023-04-02T01:11:32.930Z,0
2023-04-02T01:12:32.991Z,0
2023-04-02T01:13:33.009Z,0
2023-04-02T01:14:32.979Z,0
2023-04-02T01:15:33.082Z,0
2023-04-02T01:16:33.080Z,0
2023-04-02T01:17:32.980Z,0
2023-04-02T01:18:32.962Z,0
2023-04-02T01:19:32.852Z,0
2023-04-02T01:20:33.003Z,0
2023-04-02T01:21:32.957Z,0
2023-04-02T01:22:32.939Z,0
2023-04-02T01:23:32.913Z,0
2023-04-02T01:24:32.961Z,0
2023-04-02T01:25:33.220Z,0
2023-04-02T01:26:32.959Z,0
2023-04-02T01:27:32.897Z,0
2023-04-02T01:28:32.990Z,0
2023-04-02T01:29:32.993Z,0
2023-04-02T01:30:32.981Z,0
2023-04-02T01:31:32.910Z,0
2023-04-02T01:32:33.041Z,0
2023-04-02T01:33:32.961Z,0
2023-04-02T01:34:32.996Z,0
2023-04-02T01:35:33.193Z,0
2023-04-02T01:36:32.951Z,0
2023-04-02T01:37:32.959Z,0
2023-04-02T01:38:32.940Z,0
2023-04-02T01:39:32.837Z,0
2023-04-02T01:40:33.089Z,0
2023-04-02T01:41:33.169Z,0
2023-04-02T01:42:33.143Z,0
2023-04-02T01:43:33.035Z,0
2023-04-02T01:44:33.117Z,0
2023-04-02T01:45:33.371Z,0
2023-04-02T01:46:33.173Z,0
2023-04-02T01:47:33.117Z,0
2023-04-02T01:48:33.127Z,0
2023-04-02T01:49:33.092Z,0
2023-04-02T01:50:33.136Z,0
2023-04-02T01:51:33.041Z,0
2023-04-02T01:52:33.160Z,0
2023-04-02T01:53:33.123Z,0
2023-04-02T01:54:33.042Z,0
2023-04-02T01:55:33.350Z,0
2023-04-02T01:56:33.159Z,0
2023-04-02T01:57:33.064Z,0
2023-04-02T01:58:32.953Z,0
2023-04-02T01:59:32.884Z,0
2023-04-02T02:00:32.999Z,0
2023-04-02T02:01:32.961Z,0
2023-04-02T02:02:33.059Z,0
2023-04-02T02:03:32.918Z,0
2023-04-02T02:04:33.040Z,0
2023-04-02T02:05:33.278Z,0
2023-04-02T02:06:32.938Z,0
2023-04-02T02:07:32.891Z,0
2023-04-02T02:08:33.060Z,0
2023-04-02T02:09:32.967Z,0
2023-04-02T02:10:32.978Z,0
2023-04-02T02:11:32.844Z,0
2023-04-02T02:12:32.983Z,0
2023-04-02T02:13:33.027Z,0
2023-04-02T02:14:32.964Z,0
2023-04-02T02:15:33.126Z,0
2023-04-02T02:16:32.964Z,0
2023-04-02T02:17:33.004Z,0
2023-04-02T02:18:32.977Z,0
2023-04-02T02:19:32.888Z,0
2023-04-02T02:20:32.976Z,0
2023-04-02T02:21:32.962Z,0
2023-04-02T02:22:32.971Z,0
2023-04-02T02:23:32.865Z,0
2023-04-02T02:24:32.975Z,0
2023-04-02T02:25:33.270Z,0
2023-04-02T02:26:32.979Z,0
2023-04-02T02:27:32.869Z,0
2023-04-02T02:28:32.943Z,0
2023-04-02T02:29:32.947Z,0
2023-04-02T02:30:33.001Z,0
2023-04-02T02:31:32.930Z,0
2023-04-02T02:32:33.028Z,0
2023-04-02T02:33:32.963Z,0
2023-04-02T02:34:32.945Z,0
2023-04-02T02:35:33.184Z,0
2023-04-02T02:36:32.956Z,0
2023-04-02T02:37:32.968Z,0
2023-04-02T02:38:32.976Z,0
2023-04-02T02:39:32.874Z,0
2023-04-02T02:40:32.954Z,0
2023-04-02T02:41:32.970Z,0
2023-04-02T02:42:32.988Z,0
2023-04-02T02:43:32.886Z,0
2023-04-02T02:44:32.987Z,0
2023-04-02T02:45:33.227Z,0
2023-04-02T02:46:32.978Z,0
2023-04-02T02:47:32.922Z,0
2023-04-02T02:48:32.951Z,0
2023-04-02T02:49:32.960Z,0
2023-04-02T02:50:33.068Z,0
2023-04-02T02:51:32.921Z,0
2023-04-02T02:52:32.945Z,0
2023-04-02T02:53:32.917Z,0
2023-04-02T02:54:32.964Z,0
2023-04-02T02:55:33.326Z,0
2023-04-02T02:56:33.074Z,0
2023-04-02T02:57:33.107Z,0
2023-04-02T02:58:32.959Z,0
2023-04-02T02:59:32.850Z,0
2023-04-02T03:00:33.016Z,0
2023-04-02T03:01:33.003Z,0
2023-04-02T03:02:33.110Z,0
2023-04-02T03:03:33.127Z,0
2023-04-02T03:04:32.952Z,0
2023-04-02T03:05:33.617Z,0
2023-04-02T03:06:32.967Z,0
2023-04-02T03:07:32.866Z,0
2023-04-02T03:08:32.959Z,0
2023-04-02T03:09:32.931Z,0
2023-04-02T03:10:32.947Z,0
2023-04-02T03:11:33.069Z,0
2023-04-02T03:12:32.988Z,0
2023-04-02T03:13:32.982Z,0
2023-04-02T03:14:33.147Z,0
2023-04-02T03:15:33.107Z,0
2023-04-02T03:16:32.951Z,0
2023-04-02T03:17:33.038Z,0
2023-04-02T03:18:33.083Z,0
2023-04-02T03:19:33.041Z,0
2023-04-02T03:20:32.996Z,0
2023-04-02T03:21:32.955Z,0
2023-04-02T03:22:33.038Z,0
2023-04-02T03:23:32.951Z,0
2023-04-02T03:24:33.121Z,0
2023-04-02T03:25:33.438Z,0
2023-04-02T03:26:32.972Z,0
2023-04-02T03:27:32.961Z,0
2023-04-02T03:28:33.109Z,0
2023-04-02T03:29:33.003Z,0
2023-04-02T03:30:33.105Z,0
2023-04-02T03:31:33.120Z,0
2023-04-02T03:32:33.103Z,0
2023-04-02T03:33:32.975Z,0
2023-04-02T03:34:33.022Z,0
2023-04-02T03:35:33.299Z,0
2023-04-02T03:36:32.978Z,0
2023-04-02T03:37:33.132Z,0
2023-04-02T03:38:32.966Z,0
2023-04-02T03:39:32.978Z,0
2023-04-02T03:40:33.084Z,0
2023-04-02T03:41:32.973Z,0
2023-04-02T03:42:33.032Z,0
2023-04-02T03:43:32.955Z,0
2023-04-02T03:44:33.112Z,0
2023-04-02T03:45:33.054Z,0
2023-04-02T03:46:33.009Z,0
2023-04-02T03:47:32.998Z,0
2023-04-02T03:48:33.044Z,0
2023-04-02T03:49:32.950Z,0
2023-04-02T03:50:32.987Z,0
2023-04-02T03:51:32.861Z,0
2023-04-02T03:52:32.974Z,0
2023-04-02T03:53:32.926Z,0
2023-04-02T03:54:32.957Z,0
2023-04-02T03:55:33.113Z,0
2023-04-02T03:56:32.946Z,0
2023-04-02T03:57:33.006Z,0
2023-04-02T03:58:32.930Z,0
2023-04-02T03:59:33.079Z,0
2023-04-02T04:00:32.966Z,0
2023-04-02T04:01:33.072Z,0
2023-04-02T04:02:32.957Z,0
2023-04-02T04:03:32.895Z,0
2023-04-02T04:04:33.105Z,0
2023-04-02T04:05:33.244Z,0
2023-04-02T04:06:32.973Z,0
2023-04-02T04:07:32.892Z,0
2023-04-02T04:08:32.938Z,0
2023-04-02T04:09:32.957Z,0
2023-04-02T04:10:32.997Z,0
2023-04-02T04:11:32.921Z,0
2023-04-02T04:12:32.992Z,0.36
2023-04-02T04:13:32.949Z,0
2023-04-02T04:14:32.958Z,0.36
2023-04-02T04:15:33.162Z,0.85
2023-04-02T04:16:33.007Z,0.36
2023-04-02T04:17:32.970Z,0.85
2023-04-02T04:18:32.941Z,0
2023-04-02T04:19:32.882Z,1.22
2023-04-02T04:20:32.975Z,0.85
2023-04-02T04:21:32.977Z,1.71
2023-04-02T04:22:32.941Z,2.08
2023-04-02T04:23:32.875Z,2.08
2023-04-02T04:24:32.964Z,2.57
2023-04-02T04:25:33.094Z,2.57
2023-04-02T04:26:32.924Z,2.94
2023-04-02T04:27:32.899Z,2.08
2023-04-02T04:28:32.924Z,2.57
2023-04-02T04:29:32.948Z,2.94
2023-04-02T04:30:32.988Z,2.94
2023-04-02T04:31:32.853Z,2.94
2023-04-02T04:32:32.996Z,3.79
2023-04-02T04:33:32.937Z,4.28
2023-04-02T04:34:32.943Z,4.28
2023-04-02T04:35:32.991Z,5.14
2023-04-02T04:36:32.965Z,5.14
2023-04-02T04:37:32.941Z,5.14
2023-04-02T04:38:33.046Z,5.63
2023-04-02T04:39:32.891Z,5.14
2023-04-02T04:40:32.979Z,5.99
2023-04-02T04:41:33.076Z,5.99
2023-04-02T04:42:32.940Z,5.99
2023-04-02T04:43:32.911Z,6.48
2023-04-02T04:44:32.962Z,6.48
2023-04-02T04:45:33.073Z,6.85
2023-04-02T04:46:32.958Z,7.34
2023-04-02T04:47:32.975Z,8.19
2023-04-02T04:48:34.533Z,8.19
2023-04-02T04:49:32.946Z,8.19
2023-04-02T04:50:32.941Z,9.05
2023-04-02T04:51:32.854Z,9.05
2023-04-02T04:52:32.964Z,9.05
2023-04-02T04:53:32.908Z,9.54
2023-04-02T04:54:32.930Z,9.54
2023-04-02T04:55:33.101Z,9.91
2023-04-02T04:56:32.994Z,10.39
2023-04-02T04:57:32.957Z,10.39
2023-04-02T04:58:32.946Z,10.77
2023-04-02T04:59:32.990Z,10.39
2023-04-02T05:00:32.951Z,11.25
2023-04-02T05:01:33.004Z,11.25
2023-04-02T05:02:32.991Z,11.62
2023-04-02T05:03:32.883Z,12.48
2023-04-02T05:04:32.982Z,12.48
2023-04-02T05:05:33.166Z,12.97
2023-04-02T05:06:32.955Z,13.33
2023-04-02T05:07:32.861Z,14.31
2023-04-02T05:08:32.999Z,14.68
2023-04-02T05:09:32.986Z,13.82
2023-04-02T05:10:32.948Z,14.68
2023-04-02T05:11:32.903Z,15.17
2023-04-02T05:12:32.961Z,15.17
2023-04-02T05:13:32.944Z,15.17
2023-04-02T05:14:32.988Z,16.02
2023-04-02T05:15:32.933Z,16.39
2023-04-02T05:16:33.006Z,16.02
2023-04-02T05:17:33.029Z,16.39
2023-04-02T05:18:32.937Z,16.88
2023-04-02T05:19:32.910Z,16.88
2023-04-02T05:20:32.957Z,16.88
2023-04-02T05:21:32.961Z,16.88
2023-04-02T05:22:32.927Z,16.88
2023-04-02T05:23:32.859Z,18.11
2023-04-02T05:24:32.979Z,17.73
2023-04-02T05:25:33.103Z,19.45
2023-04-02T05:26:32.952Z,20.31
2023-04-02T05:27:32.904Z,21.16
2023-04-02T05:28:32.956Z,21.65
2023-04-02T05:29:32.930Z,22.02
2023-04-02T05:30:32.927Z,22.02
2023-04-02T05:31:32.979Z,22.02
2023-04-02T05:32:32.998Z,22.87
2023-04-02T05:33:32.934Z,25.07
2023-04-02T05:34:33.037Z,22.87
2023-04-02T05:35:33.047Z,22.87
2023-04-02T05:36:32.951Z,23.85
2023-04-02T05:37:32.947Z,25.56
2023-04-02T05:38:32.934Z,26.42
2023-04-02T05:39:32.884Z,25.07
2023-04-02T05:40:32.946Z,23.85
2023-04-02T05:41:32.932Z,24.71
2023-04-02T05:42:32.937Z,25.56
2023-04-02T05:43:32.902Z,25.56
2023-04-02T05:44:32.931Z,26.79
2023-04-02T05:45:33.062Z,27.28
2023-04-02T05:46:32.959Z,28.63
2023-04-02T05:47:32.904Z,32.9
2023-04-02T05:48:32.951Z,38.53
2023-04-02T05:49:32.953Z,43.8
2023-04-02T05:50:32.943Z,40.73
2023-04-02T05:51:32.936Z,47.71
2023-04-02T05:52:32.936Z,50.65
2023-04-02T05:53:32.945Z,47.71
2023-04-02T05:54:32.953Z,45.87
2023-04-02T05:55:33.189Z,40.73
2023-04-02T05:56:32.930Z,42.45
2023-04-02T05:58:36.220Z,40.24
2023-04-02T05:59:32.903Z,39.88
2023-04-02T06:00:32.943Z,47.22
2023-04-02T06:01:32.912Z,50.65
2023-04-02T06:02:33.047Z,48.93
2023-04-02T06:03:33.003Z,45.51
2023-04-02T06:04:32.946Z,46.73
2023-04-02T06:05:32.925Z,47.71
2023-04-02T06:06:32.987Z,51.5
2023-04-02T06:07:32.847Z,49.79
2023-04-02T06:08:32.926Z,47.22
2023-04-02T06:09:32.959Z,54.56
2023-04-02T06:10:32.939Z,69.73
2023-04-02T06:11:32.869Z,74.5
2023-04-02T06:12:32.934Z,73.28
2023-04-02T06:13:32.908Z,74.14
2023-04-02T06:14:32.941Z,59.82
2023-04-02T06:15:33.123Z,51.99
2023-04-02T06:16:33.010Z,74.14
2023-04-02T06:17:33.008Z,71.07
2023-04-02T06:18:32.946Z,78.9
2023-04-02T06:19:32.884Z,97.13
2023-04-02T06:20:32.950Z,102.76
2023-04-02T06:21:32.936Z,88.82
2023-04-02T06:22:32.919Z,85.39
2023-04-02T06:23:32.872Z,75.48
2023-04-02T06:24:32.975Z,80.25
2023-04-02T06:25:32.931Z,87.96
2023-04-02T06:26:32.946Z,87.59
2023-04-02T06:27:32.808Z,94.93
2023-04-02T06:28:33.007Z,94.56
2023-04-02T06:29:32.903Z,78.9
2023-04-02T06:30:33.008Z,48.07
2023-04-02T06:31:32.865Z,40.73
2023-04-02T06:32:33.004Z,68.02
2023-04-02T06:33:32.937Z,100.19
2023-04-02T06:34:32.929Z,122.34
2023-04-02T06:35:32.909Z,124.05
2023-04-02T06:36:32.957Z,123.56
2023-04-02T06:37:32.998Z,131.39
2023-04-02T06:38:32.957Z,126.61
2023-04-02T06:39:32.834Z,110.96
2023-04-02T06:40:32.977Z,117.07
2023-04-02T06:41:32.932Z,127.1
2023-04-02T06:42:32.945Z,129.19
2023-04-02T06:43:32.841Z,148.76
2023-04-02T06:44:32.942Z,133.95
2023-04-02T06:45:33.068Z,107.9
2023-04-02T06:46:33.085Z,97.13
2023-04-02T06:47:32.866Z,110.59
2023-04-02T06:48:32.947Z,112.3
2023-04-02T06:49:32.919Z,95.42
2023-04-02T06:50:32.931Z,90.65
2023-04-02T06:51:32.842Z,101.9
2023-04-02T06:52:34.996Z,104.1
2023-04-02T06:53:32.923Z,105.82
2023-04-02T06:54:32.938Z,105.33
2023-04-02T06:55:32.937Z,127.47
2023-04-02T06:56:32.949Z,161.73
2023-04-02T06:57:32.976Z,158.67
2023-04-02T06:58:32.918Z,181.3
2023-04-02T06:59:32.815Z,194.27
2023-04-02T07:00:32.957Z,205.15
2023-04-02T07:01:32.967Z,187.29
2023-04-02T07:02:32.990Z,174.33
2023-04-02T07:03:32.823Z,173.47
2023-04-02T07:04:32.948Z,183.02
2023-04-02T07:05:33.155Z,170.9
2023-04-02T07:06:32.962Z,183.87
2023-04-02T07:07:32.827Z,202.1
2023-04-02T07:08:32.969Z,190.84
2023-04-02T07:09:32.944Z,174.81
2023-04-02T07:10:32.952Z,160.87
2023-04-02T07:11:32.858Z,147.41
2023-04-02T07:12:32.918Z,173.84
2023-04-02T07:13:32.930Z,203.81
2023-04-02T07:14:32.875Z,211.15
2023-04-02T07:15:32.941Z,222.53
2023-04-02T07:16:32.982Z,204.66
2023-04-02T07:17:32.953Z,189.13
2023-04-02T07:18:32.908Z,186.07
2023-04-02T07:19:32.832Z,173.84
2023-04-02T07:20:32.964Z,185.22
2023-04-02T07:21:32.936Z,183.87
2023-04-02T07:22:32.944Z,181.3
2023-04-02T07:23:32.842Z,227.3
2023-04-02T07:24:32.939Z,213.35
2023-04-02T07:25:33.085Z,191.21
2023-04-02T07:26:32.956Z,201.24
2023-04-02T07:27:32.835Z,202.1
2023-04-02T07:28:32.930Z,217.76
2023-04-02T07:29:32.945Z,256.78
2023-04-02T07:30:32.932Z,268.03
2023-04-02T07:31:33.024Z,275.01
2023-04-02T07:32:33.002Z,291.03
2023-04-02T07:33:32.913Z,301.93
2023-04-02T07:34:32.928Z,305.35
2023-04-02T07:35:33.014Z,304.49
2023-04-02T07:36:32.943Z,306.2
2023-04-02T07:37:32.928Z,309.63
2023-04-02T07:38:32.979Z,309.27
2023-04-02T07:39:34.188Z,317.95
2023-04-02T07:40:32.937Z,307.92
2023-04-02T07:41:32.952Z,310.98
2023-04-02T07:42:32.918Z,324.44
2023-04-02T07:43:32.787Z,323.58
2023-04-02T07:44:32.941Z,325.78
2023-04-02T07:45:33.080Z,328.35
2023-04-02T07:46:32.966Z,327.86
2023-04-02T07:47:32.762Z,327.86
2023-04-02T07:48:32.930Z,331.78
2023-04-02T07:49:32.907Z,336.18
2023-04-02T07:50:32.894Z,338.26
2023-04-02T07:51:32.818Z,338.26
2023-04-02T07:52:32.931Z,333.12
2023-04-02T07:53:32.944Z,319.66
2023-04-02T07:54:32.910Z,306.2
2023-04-02T07:55:32.981Z,303.64
2023-04-02T07:56:32.933Z,309.27
2023-04-02T07:57:32.985Z,319.66
2023-04-02T07:58:32.959Z,334.47
2023-04-02T07:59:32.918Z,350
2023-04-02T08:00:32.927Z,357.34
2023-04-02T08:01:32.950Z,363.95
2023-04-02T08:02:33.005Z,360.03
2023-04-02T08:03:33.147Z,362.12
2023-04-02T08:04:32.933Z,377.77
2023-04-02T08:05:32.947Z,363.09
2023-04-02T08:06:32.931Z,364.81
2023-04-02T08:07:32.763Z,368.23
2023-04-02T08:08:32.944Z,369.94
2023-04-02T08:09:32.934Z,371.29
2023-04-02T08:10:32.896Z,370.43
2023-04-02T08:11:32.785Z,370.8
2023-04-02T08:12:32.938Z,374.35
2023-04-02T08:13:32.909Z,376.55
2023-04-02T08:14:32.871Z,379.49
2023-04-02T08:15:33.073Z,384.25
2023-04-02T08:16:32.932Z,386.09
2023-04-02T08:17:32.963Z,385.6
2023-04-02T08:18:32.893Z,387.81
2023-04-02T08:19:35.091Z,390.37
2023-04-02T08:20:32.941Z,391.23
2023-04-02T08:21:32.950Z,393.8
2023-04-02T08:22:32.915Z,393.8
2023-04-02T08:23:32.768Z,396
2023-04-02T08:24:32.933Z,394.29
2023-04-02T08:25:33.255Z,397.71
2023-04-02T08:26:32.942Z,399.06
2023-04-02T08:27:32.774Z,399.42
2023-04-02T08:28:32.915Z,400.77
2023-04-02T08:29:32.925Z,404.2
2023-04-02T08:30:32.931Z,406.4
2023-04-02T08:31:32.737Z,410.81
2023-04-02T08:32:32.923Z,413.37
2023-04-02T08:33:32.932Z,412.52
2023-04-02T08:34:32.895Z,412.52
2023-04-02T08:35:32.684Z,413.74
2023-04-02T08:36:32.909Z,414.72
2023-04-02T08:37:32.937Z,412.03
2023-04-02T08:38:32.901Z,405.18
2023-04-02T08:39:32.708Z,398.57
2023-04-02T08:40:32.922Z,399.91
2023-04-02T08:41:33.024Z,402.98
2023-04-02T08:42:32.917Z,410.81
2023-04-02T08:43:32.703Z,416.8
2023-04-02T08:44:33.001Z,414.72
2023-04-02T08:45:32.929Z,404.2
2023-04-02T08:46:32.952Z,392.94
2023-04-02T08:47:32.792Z,377.4
2023-04-02T08:48:32.918Z,366.03
2023-04-02T08:49:32.902Z,359.18
2023-04-02T08:50:32.907Z,347.8
2023-04-02T08:51:32.700Z,389.03
2023-04-02T08:52:32.982Z,399.91
2023-04-02T08:53:32.928Z,415.94
2023-04-02T08:54:34.277Z,415.94
2023-04-02T08:55:32.970Z,444.2
2023-04-02T08:56:32.911Z,441.14
2023-04-02T08:57:33.057Z,420.71
2023-04-02T08:58:32.950Z,379.12
2023-04-02T08:59:32.731Z,407.25
2023-04-02T09:00:32.968Z,432.45
2023-04-02T09:01:32.997Z,395.15
2023-04-02T09:02:32.964Z,317.1
2023-04-02T09:03:32.698Z,305.35
2023-04-02T09:04:32.954Z,278.44
2023-04-02T09:05:33.143Z,294.95
2023-04-02T09:06:32.897Z,235.98
2023-04-02T09:07:32.673Z,246.39
2023-04-02T09:08:32.909Z,330.55
2023-04-02T09:09:32.930Z,293.61
2023-04-02T09:10:32.965Z,303.64
2023-04-02T09:11:32.699Z,266.69
2023-04-02T09:12:32.924Z,362.6
2023-04-02T09:13:32.977Z,439.79
2023-04-02T09:14:32.904Z,324.93
2023-04-02T09:15:32.721Z,448.48
2023-04-02T09:16:32.953Z,455.82
2023-04-02T09:17:39.729Z,412.88
2023-04-02T09:18:32.963Z,449.83
2023-04-02T09:19:32.668Z,466.71
2023-04-02T09:20:32.906Z,410.81
2023-04-02T09:21:32.934Z,427.69
2023-04-02T09:22:32.927Z,389.88
2023-04-02T09:23:32.643Z,362.12
2023-04-02T09:24:32.926Z,307.92
2023-04-02T09:25:33.035Z,406.89
2023-04-02T09:26:32.881Z,458.52
2023-04-02T09:27:32.669Z,478.82
2023-04-02T09:28:32.920Z,488.86
2023-04-02T09:29:32.910Z,491.42
2023-04-02T09:30:32.910Z,493.62
2023-04-02T09:31:32.747Z,429.4
2023-04-02T09:32:32.951Z,510.14
2023-04-02T09:33:32.917Z,88.45
2023-04-02T09:34:32.904Z,112.67
2023-04-02T09:35:32.686Z,137.02
2023-04-02T09:36:32.985Z,465.86
2023-04-02T09:37:32.933Z,416.8
2023-04-02T09:38:32.980Z,316.24
2023-04-02T09:39:32.668Z,357.34
2023-04-02T09:40:33.742Z,350.49
2023-04-02T09:42:32.932Z,397.35
2023-04-02T09:43:32.682Z,450.69
2023-04-02T09:44:32.916Z,366.03
2023-04-02T09:45:33.056Z,494.97
2023-04-02T09:46:32.958Z,427.2
2023-04-02T09:47:32.672Z,516.99
2023-04-02T09:48:32.903Z,445.91
2023-04-02T09:49:32.931Z,468.91
2023-04-02T09:50:32.897Z,463.28
2023-04-02T09:51:32.627Z,461.57
2023-04-02T09:52:32.915Z,484.94
2023-04-02T09:53:32.912Z,435.88
2023-04-02T09:54:32.928Z,373.86
2023-04-02T09:55:32.630Z,507.94
2023-04-02T09:56:32.914Z,386.09
2023-04-02T09:57:32.967Z,385.6
2023-04-02T09:58:32.914Z,454.6
2023-04-02T09:59:32.638Z,365.66
2023-04-02T10:00:32.972Z,361.25
2023-04-02T10:01:33.071Z,405.18
2023-04-02T10:02:32.997Z,340.09
2023-04-02T10:03:32.626Z,340.95
2023-04-02T10:04:32.905Z,290.18
2023-04-02T10:05:40.591Z,346.57
2023-04-02T10:06:32.970Z,305.35
2023-04-02T10:07:32.641Z,393.8
2023-04-02T10:08:32.946Z,399.91
2023-04-02T10:09:32.899Z,361.25
2023-04-02T10:10:32.965Z,444.57
2023-04-02T10:11:43.649Z,416.43
2023-04-02T10:12:32.925Z,395.64
2023-04-02T10:13:32.942Z,400.77
2023-04-02T10:14:32.935Z,445.91
2023-04-02T10:15:32.584Z,337.03
2023-04-02T10:16:33.167Z,401.26
2023-04-02T10:17:32.943Z,367.37
2023-04-02T10:18:32.919Z,346.95
2023-04-02T10:19:32.638Z,310.12
2023-04-02T10:21:32.916Z,229.01
2023-04-02T10:22:32.906Z,266.32
2023-04-02T10:23:32.548Z,284.92
2023-04-02T10:24:32.934Z,307.06
2023-04-02T10:25:33.024Z,260.21
2023-04-02T10:26:32.907Z,258.49
2023-04-02T10:27:32.530Z,229.38
2023-04-02T10:28:32.925Z,140.93
2023-04-02T10:29:32.988Z,214.21
2023-04-02T10:30:32.957Z,263.27
2023-04-02T10:31:32.608Z,332.27
2023-04-02T10:32:32.936Z,274.15
2023-04-02T10:33:32.954Z,275.37
2023-04-02T10:34:32.917Z,258.49
2023-04-02T10:35:32.613Z,202.59
2023-04-02T10:36:32.979Z,216.9
2023-04-02T10:37:32.946Z,227.66
2023-04-02T10:38:32.908Z,210.78
2023-04-02T10:39:32.609Z,163.44
2023-04-02T10:40:32.993Z,186.93
2023-04-02T10:41:32.894Z,166.13
2023-04-02T10:42:32.912Z,97.5
2023-04-02T10:43:32.561Z,151.82
2023-04-02T10:44:32.911Z,163.93
2023-04-02T10:45:32.964Z,177.75
2023-04-02T10:46:33.011Z,138.36
2023-04-02T10:47:32.570Z,88.45
2023-04-02T10:48:32.925Z,172.98
2023-04-02T10:49:32.949Z,97.13
2023-04-02T10:50:32.915Z,186.44
2023-04-02T10:51:32.547Z,207.36
2023-04-02T10:52:32.921Z,229.01
2023-04-02T10:53:32.918Z,216.41
2023-04-02T10:54:32.906Z,160.02
2023-04-02T10:55:32.627Z,202.1
2023-04-02T10:56:44.199Z,111.82
2023-04-02T10:57:33.011Z,138.36
2023-04-02T10:58:32.885Z,115.36
2023-04-02T10:59:32.501Z,109.24
2023-04-02T11:00:32.911Z,87.1
2023-04-02T11:01:32.965Z,71.56
2023-04-02T11:02:33.015Z,57.62
2023-04-02T11:03:32.601Z,188.64
2023-04-02T11:04:32.940Z,69.36
2023-04-02T11:05:32.957Z,350
2023-04-02T11:06:32.917Z,454.11
2023-04-02T11:07:32.529Z,380.34
2023-04-02T11:08:32.930Z,59.82
2023-04-02T11:09:32.903Z,426.34
2023-04-02T11:10:32.919Z,440.66
2023-04-02T11:11:32.562Z,479.31
2023-04-02T11:12:32.897Z,427.69
2023-04-02T11:13:32.910Z,406.89
2023-04-02T11:14:32.932Z,397.35
2023-04-02T11:15:32.542Z,412.88
2023-04-02T11:16:33.042Z,225.95
2023-04-02T11:17:32.930Z,193.9
2023-04-02T11:18:32.901Z,300.58
2023-04-02T11:19:32.578Z,350.49
2023-04-02T11:20:32.889Z,287.12
2023-04-02T11:21:32.888Z,174.81
2023-04-02T11:22:32.901Z,84.04
2023-04-02T11:23:32.494Z,93.58
2023-04-02T11:24:33.054Z,129.68
2023-04-02T11:25:33.064Z,287.12
2023-04-02T11:26:32.893Z,360.89
2023-04-02T11:27:32.492Z,328.35
2023-04-02T11:28:32.918Z,378.63
2023-04-02T11:29:32.903Z,406.4
2023-04-02T11:30:32.935Z,372.64
2023-04-02T11:31:32.568Z,149.12
2023-04-02T11:32:32.953Z,194.76
2023-04-02T11:33:38.421Z,123.19
2023-04-02T11:34:32.899Z,419
2023-04-02T11:35:32.532Z,347.43
2023-04-02T11:36:32.933Z,276.24
2023-04-02T11:37:32.876Z,205.15
2023-04-02T11:38:32.880Z,147.05
2023-04-02T11:39:32.498Z,154.75
2023-04-02T11:40:32.939Z,156.59
2023-04-02T11:41:32.941Z,169.56
2023-04-02T11:42:32.948Z,315.38
2023-04-02T11:43:32.624Z,355.63
2023-04-02T11:44:32.924Z,406.89
2023-04-02T11:45:40.206Z,391.72
2023-04-02T11:46:32.920Z,172.98
2023-04-02T11:47:32.446Z,326.64
2023-04-02T11:48:32.907Z,374.71
2023-04-02T11:49:32.884Z,74.14
2023-04-02T11:50:32.916Z,72.42
2023-04-02T11:51:32.557Z,357.34
2023-04-02T11:52:32.921Z,92.73
2023-04-02T11:53:32.924Z,450.69
2023-04-02T11:54:32.894Z,453.74
2023-04-02T11:55:32.504Z,498.4
2023-04-02T11:56:32.905Z,506.59
2023-04-02T11:57:32.920Z,481.52
2023-04-02T11:58:32.884Z,386.46
2023-04-02T11:59:32.479Z,396.49
2023-04-02T12:00:33.010Z,468.91
2023-04-02T12:01:32.904Z,440.28
2023-04-02T12:02:33.029Z,360.4
2023-04-02T12:03:32.496Z,331.4
2023-04-02T12:04:32.936Z,406.03
2023-04-02T12:05:33.040Z,358.32
2023-04-02T12:06:32.914Z,256.29
2023-04-02T12:07:32.493Z,278.44
2023-04-02T12:08:32.904Z,291.4
2023-04-02T12:09:32.896Z,302.78
2023-04-02T12:10:32.924Z,343.03
2023-04-02T12:11:32.481Z,347.43
2023-04-02T12:12:32.926Z,301.93
2023-04-02T12:13:32.923Z,314.4
2023-04-02T12:14:32.884Z,343.03
2023-04-02T12:15:32.514Z,225.1
2023-04-02T12:16:32.956Z,338.75
2023-04-02T12:17:32.931Z,326.15
2023-04-02T12:18:32.885Z,314.89
2023-04-02T12:19:32.412Z,242.47
2023-04-02T12:20:32.876Z,270.24
2023-04-02T12:21:32.897Z,189.49
2023-04-02T12:22:32.924Z,213.84
2023-04-02T12:23:32.432Z,340.09
2023-04-02T12:24:32.910Z,327.49
2023-04-02T12:25:32.936Z,350
2023-04-02T12:26:32.947Z,389.88
2023-04-02T12:27:32.416Z,425.11
2023-04-02T12:28:32.940Z,379.98
2023-04-02T12:29:33.004Z,147.9
2023-04-02T12:30:33.068Z,149.12
2023-04-02T12:31:32.500Z,184.36
2023-04-02T12:32:32.911Z,77.56
2023-04-02T12:33:32.872Z,386.09
2023-04-02T12:34:32.913Z,141.78
2023-04-02T12:35:32.468Z,442.49
2023-04-02T12:36:32.890Z,435.03
2023-04-02T12:37:32.912Z,426.83
2023-04-02T12:38:32.893Z,76.34
2023-04-02T12:39:32.501Z,234.64
2023-04-02T12:40:32.910Z,378.63
2023-04-02T12:41:32.910Z,398.2
2023-04-02T12:42:32.916Z,384.74
2023-04-02T12:43:32.417Z,381.69
2023-04-02T12:44:32.888Z,376.91
2023-04-02T12:45:32.942Z,81.1
2023-04-02T12:46:32.965Z,369.94
2023-04-02T12:47:32.446Z,367.37
2023-04-02T12:48:32.939Z,369.57
2023-04-02T12:49:32.922Z,368.23
2023-04-02T12:50:32.938Z,360.89
2023-04-02T12:51:32.379Z,334.83
2023-04-02T12:52:32.893Z,318.81
2023-04-02T12:53:32.882Z,354.78
2023-04-02T12:54:32.940Z,356.49
2023-04-02T12:55:32.406Z,360.89
2023-04-02T12:56:32.898Z,335.32
2023-04-02T12:57:32.966Z,285.78
2023-04-02T12:58:32.894Z,345.23
2023-04-02T12:59:32.400Z,213.84
2023-04-02T13:00:33.097Z,227.3
2023-04-02T13:01:32.945Z,197.32
2023-04-02T13:02:32.980Z,225.46
2023-04-02T13:03:32.381Z,215.07
2023-04-02T13:04:32.898Z,186.93
2023-04-02T13:05:32.968Z,158.67
2023-04-02T13:06:32.881Z,209.07
2023-04-02T13:07:32.345Z,177.75
2023-04-02T13:08:32.907Z,85.88
2023-04-02T13:09:32.925Z,188.64
2023-04-02T13:10:32.896Z,51.99
2023-04-02T13:11:32.361Z,170.05
2023-04-02T13:12:32.901Z,225.1
2023-04-02T13:13:32.928Z,255.93
2023-04-02T13:14:32.849Z,62.39
2023-04-02T13:15:32.454Z,63.24
2023-04-02T13:16:32.949Z,217.27
2023-04-02T13:17:32.937Z,202.1
2023-04-02T13:18:32.887Z,198.67
2023-04-02T13:19:32.368Z,234.15